createdAt,value
2018-11-12T00:00:57.319Z,1.60
2018-11-12T00:03:25.971Z,1.80
2018-11-12T00:05:54.431Z,2.40
2018-11-12T00:08:22.888Z,2.10
2018-11-12T00:10:51.361Z,1.80
2018-11-12T00:13:19.927Z,2.23
2018-11-12T00:15:48.528Z,2.10
2018-11-12T00:18:17.070Z,2.23
2018-11-12T00:20:45.549Z,1.80
2018-11-12T00:23:14.106Z,2.03
2018-11-12T00:25:42.590Z,2.27
2018-11-12T00:28:11.068Z,6.20
2018-11-12T00:30:39.635Z,37.27
2018-11-12T00:33:08.123Z,23.80
2018-11-12T00:35:36.731Z,3.47
2018-11-12T00:38:05.751Z,2.60
2018-11-12T00:40:34.284Z,2.25
2018-11-12T00:43:02.804Z,2.10
2018-11-12T00:45:31.303Z,2.25
2018-11-12T00:47:59.787Z,15.60
2018-11-12T00:50:40.808Z,4.90
2018-11-12T00:53:09.436Z,2.10
2018-11-12T00:55:37.975Z,2.10
2018-11-12T00:58:06.522Z,2.43
2018-11-12T01:00:35.143Z,2.20
2018-11-12T01:03:03.654Z,2.60
2018-11-12T01:05:32.182Z,1.90
2018-11-12T01:08:00.646Z,3.03
2018-11-12T01:10:29.216Z,2.57
2018-11-12T01:12:57.760Z,1.90
2018-11-12T01:15:26.294Z,2.30
2018-11-12T01:17:54.777Z,2.60
2018-11-12T01:20:23.265Z,2.33
2018-11-12T01:22:51.779Z,2.13
2018-11-12T01:25:20.206Z,2.33
2018-11-12T01:27:48.659Z,2.40
2018-11-12T01:30:18.406Z,2.50
2018-11-12T01:32:47.138Z,2.37
2018-11-12T01:35:16.500Z,1.80
2018-11-12T01:37:54.505Z,2.40
2018-11-12T01:40:23.015Z,2.00
2018-11-12T01:42:51.489Z,1.80
2018-11-12T01:45:20.942Z,2.53
2018-11-12T01:47:50.488Z,2.40
2018-11-12T01:50:19.656Z,2.67
2018-11-12T01:52:48.834Z,2.30
2018-11-12T01:55:18.452Z,2.52
2018-11-12T01:57:46.960Z,2.10
2018-11-12T02:00:17.854Z,2.50
2018-11-12T02:02:47.493Z,2.57
2018-11-12T02:05:16.221Z,2.93
2018-11-12T02:07:44.675Z,1.95
2018-11-12T02:10:14.228Z,2.60
2018-11-12T02:12:42.859Z,2.10
2018-11-12T02:15:16.479Z,2.13
2018-11-12T02:17:45.926Z,1.80
2018-11-12T02:20:15.607Z,1.90
2018-11-12T02:22:45.064Z,2.10
2018-11-12T02:25:14.128Z,1.90
2018-11-12T02:27:42.651Z,1.80
2018-11-12T02:30:21.464Z,2.40
2018-11-12T02:32:50.002Z,1.73
2018-11-12T02:35:18.423Z,2.50
2018-11-12T02:37:46.842Z,1.70
2018-11-12T02:40:15.351Z,2.23
2018-11-12T02:42:44.251Z,1.77
2018-11-12T02:45:13.847Z,2.33
2018-11-12T02:47:43.218Z,2.03
2018-11-12T02:50:16.221Z,1.73
2018-11-12T02:52:44.660Z,2.13
2018-11-12T02:55:15.056Z,2.73
2018-11-12T02:57:48.864Z,2.00
2018-11-12T03:00:21.016Z,2.10
2018-11-12T03:02:49.540Z,2.00
2018-11-12T03:05:18.063Z,1.77
2018-11-12T03:07:46.780Z,2.10
2018-11-12T03:10:18.243Z,1.63
2018-11-12T03:12:46.692Z,1.90
2018-11-12T03:15:15.801Z,1.77
2018-11-12T03:17:44.993Z,2.20
2018-11-12T03:20:16.653Z,2.00
2018-11-12T03:22:45.129Z,1.97
2018-11-12T03:25:14.752Z,2.30
2018-11-12T03:27:43.971Z,2.00
2018-11-12T03:30:13.851Z,2.20
2018-11-12T03:32:45.111Z,2.50
2018-11-12T03:35:13.967Z,3.13
2018-11-12T03:37:46.223Z,1.90
2018-11-12T03:40:16.756Z,2.23
2018-11-12T03:42:45.652Z,2.90
2018-11-12T03:45:17.437Z,2.20
2018-11-12T03:47:45.890Z,2.65
2018-11-12T03:50:15.604Z,2.67
2018-11-12T03:52:44.085Z,2.50
2018-11-12T03:55:13.529Z,2.40
2018-11-12T03:57:42.075Z,3.30
2018-11-12T04:00:13.704Z,4.50
2018-11-12T04:02:42.097Z,3.07
2018-11-12T04:05:10.864Z,2.90
2018-11-12T04:07:40.016Z,2.33
2018-11-12T04:10:11.420Z,2.77
2018-11-12T04:12:39.884Z,2.40
2018-11-12T04:15:10.997Z,2.80
2018-11-12T04:17:39.477Z,2.90
2018-11-12T04:20:09.124Z,2.70
2018-11-12T04:22:37.755Z,2.50
2018-11-12T04:25:07.296Z,2.50
2018-11-12T04:27:35.724Z,2.47
2018-11-12T04:30:04.907Z,2.23
2018-11-12T04:32:33.311Z,2.67
2018-11-12T04:35:01.734Z,2.70
2018-11-12T04:37:30.348Z,2.63
2018-11-12T04:39:58.762Z,2.83
2018-11-12T04:42:27.170Z,2.40
2018-11-12T04:45:03.752Z,2.20
2018-11-12T04:47:32.186Z,2.50
2018-11-12T04:50:00.623Z,2.90
2018-11-12T04:52:29.044Z,2.93
2018-11-12T04:54:57.596Z,2.37
2018-11-12T04:57:25.972Z,2.20
2018-11-12T04:59:54.407Z,2.47
2018-11-12T05:02:22.866Z,2.37
2018-11-12T05:04:51.309Z,2.53
2018-11-12T05:07:19.758Z,2.50
2018-11-12T05:09:48.168Z,2.60
2018-11-12T05:12:16.586Z,3.00
2018-11-12T05:14:45.012Z,1.98
2018-11-12T05:17:13.421Z,2.83
2018-11-12T05:19:41.879Z,2.57
2018-11-12T05:22:10.289Z,2.67
2018-11-12T05:24:38.741Z,2.47
2018-11-12T05:27:07.217Z,2.80
2018-11-12T05:29:35.715Z,3.20
2018-11-12T05:32:04.145Z,2.63
2018-11-12T05:34:32.557Z,2.27
2018-11-12T05:37:00.985Z,3.30
2018-11-12T05:39:29.516Z,3.10
2018-11-12T05:41:57.933Z,3.60
2018-11-12T05:44:26.384Z,2.50
2018-11-12T05:46:54.808Z,3.03
2018-11-12T05:49:23.233Z,2.90
2018-11-12T05:51:51.652Z,3.00
2018-11-12T05:54:20.102Z,3.23
2018-11-12T05:56:48.516Z,3.30
2018-11-12T05:59:22.401Z,3.30
2018-11-12T06:01:50.832Z,3.00
2018-11-12T06:04:19.260Z,3.33
2018-11-12T06:06:47.689Z,2.67
2018-11-12T06:09:16.187Z,3.10
2018-11-12T06:11:44.643Z,3.80
2018-11-12T06:14:13.124Z,2.80
2018-11-12T06:16:41.570Z,3.00
2018-11-12T06:19:10.108Z,3.27
2018-11-12T06:21:38.550Z,4.57
2018-11-12T06:24:06.992Z,7.40
2018-11-12T06:26:35.443Z,9.93
2018-11-12T06:29:03.925Z,6.67
2018-11-12T06:31:32.363Z,5.53
2018-11-12T06:34:00.803Z,13.10
2018-11-12T06:36:29.229Z,14.77
2018-11-12T06:38:57.674Z,15.60
2018-11-12T06:41:26.155Z,13.13
2018-11-12T06:43:54.590Z,9.43
2018-11-12T06:46:23.118Z,10.10
2018-11-12T06:48:51.557Z,9.70
2018-11-12T06:51:19.981Z,11.30
2018-11-12T06:53:48.417Z,14.60
2018-11-12T06:56:16.811Z,12.00
2018-11-12T06:58:45.199Z,16.95
2018-11-12T07:01:13.620Z,12.37
2018-11-12T07:03:42.016Z,10.33
2018-11-12T07:06:10.464Z,11.00
2018-11-12T07:08:38.889Z,10.10
2018-11-12T07:11:07.698Z,10.10
2018-11-12T07:13:36.077Z,8.17
2018-11-12T07:16:04.493Z,6.93
2018-11-12T07:18:32.898Z,7.40
2018-11-12T07:21:01.358Z,12.80
2018-11-12T07:23:29.756Z,17.53
2018-11-12T07:25:58.215Z,14.70
2018-11-12T07:28:26.617Z,11.63
2018-11-12T07:30:55.131Z,13.27
2018-11-12T07:33:23.431Z,11.83
2018-11-12T07:35:51.865Z,14.40
2018-11-12T07:38:21.316Z,13.90
2018-11-12T07:40:49.750Z,10.97
2018-11-12T07:43:18.129Z,7.67
2018-11-12T07:45:46.558Z,6.00
2018-11-12T07:48:14.952Z,6.60
2018-11-12T07:50:43.370Z,6.33
2018-11-12T07:53:11.771Z,6.77
2018-11-12T07:55:40.184Z,7.40
2018-11-12T07:58:08.595Z,7.57
2018-11-12T08:00:37.031Z,7.25
2018-11-12T08:03:07.217Z,5.53
2018-11-12T08:05:36.091Z,4.83
2018-11-12T08:08:04.563Z,5.78
2018-11-12T08:10:32.974Z,5.70
2018-11-12T08:13:01.384Z,5.87
2018-11-12T08:15:29.810Z,5.33
2018-11-12T08:17:58.215Z,4.63
2018-11-12T08:20:27.645Z,5.20
2018-11-12T08:22:56.127Z,9.07
2018-11-12T08:25:24.576Z,5.50
2018-11-12T08:27:52.982Z,5.43
2018-11-12T08:30:24.625Z,5.07
2018-11-12T08:32:54.674Z,5.27
2018-11-12T08:35:23.064Z,6.70
2018-11-12T08:37:52.152Z,9.50
2018-11-12T08:40:22.025Z,8.45
2018-11-12T08:42:50.458Z,5.97
2018-11-12T08:45:18.895Z,5.70
2018-11-12T08:47:50.403Z,5.23
2018-11-12T08:50:20.224Z,6.60
2018-11-12T08:52:50.859Z,6.50
2018-11-12T08:55:20.876Z,5.53
2018-11-12T08:57:52.535Z,5.47
2018-11-12T09:00:21.920Z,6.20
2018-11-12T09:02:50.468Z,6.60
2018-11-12T09:05:19.829Z,5.20
2018-11-12T09:07:49.538Z,5.00
2018-11-12T09:10:20.030Z,5.50
2018-11-12T09:12:48.376Z,5.10
2018-11-12T09:15:16.856Z,5.60
2018-11-12T09:17:46.179Z,4.80
2018-11-12T09:20:23.138Z,5.33
2018-11-12T09:22:51.545Z,6.10
2018-11-12T09:25:22.194Z,5.60
2018-11-12T09:27:50.629Z,5.27
2018-11-12T09:30:21.428Z,5.67
2018-11-12T09:32:49.930Z,4.80
2018-11-12T09:35:21.776Z,3.93
2018-11-12T09:37:51.102Z,4.60
2018-11-12T09:40:20.981Z,4.33
2018-11-12T09:42:49.518Z,4.50
2018-11-12T09:45:17.932Z,4.37
2018-11-12T09:47:46.766Z,3.83
2018-11-12T09:50:16.388Z,4.70
2018-11-12T09:52:47.803Z,4.97
2018-11-12T09:55:17.236Z,4.40
2018-11-12T09:57:47.922Z,5.40
2018-11-12T10:00:17.708Z,10.07
2018-11-12T10:02:47.685Z,11.57
2018-11-12T10:05:17.229Z,13.73
2018-11-12T10:07:47.568Z,8.88
2018-11-12T10:10:28.226Z,9.07
2018-11-12T10:12:56.027Z,7.80
2018-11-12T10:15:23.572Z,8.77
2018-11-12T10:17:53.205Z,7.30
2018-11-12T10:20:19.170Z,8.27
2018-11-12T10:22:48.784Z,7.60
2018-11-12T10:25:17.800Z,6.20
2018-11-12T10:27:46.183Z,5.60
2018-11-12T10:30:14.603Z,16.37
2018-11-12T10:32:43.006Z,48.40
2018-11-12T10:35:11.530Z,21.93
2018-11-12T10:37:40.756Z,12.87
2018-11-12T10:40:14.912Z,8.83
2018-11-12T10:42:43.772Z,6.07
2018-11-12T10:45:12.251Z,15.55
2018-11-12T10:47:40.722Z,22.63
2018-11-12T10:50:09.232Z,8.87
2018-11-12T10:52:37.716Z,5.40
2018-11-12T10:55:08.667Z,4.93
2018-11-12T10:57:36.998Z,5.23
2018-11-12T11:00:13.741Z,4.33
2018-11-12T11:02:47.515Z,4.60
2018-11-12T11:05:15.899Z,5.33
2018-11-12T11:07:44.292Z,9.97
2018-11-12T11:10:12.679Z,10.53
2018-11-12T11:12:41.057Z,6.50
2018-11-12T11:15:09.464Z,5.60
2018-11-12T11:17:37.830Z,4.40
2018-11-12T11:20:06.255Z,4.90
2018-11-12T11:22:34.615Z,4.58
2018-11-12T11:25:03.067Z,4.47
2018-11-12T11:27:31.528Z,5.37
2018-11-12T11:29:59.906Z,4.50
2018-11-12T11:32:29.416Z,4.87
2018-11-12T11:34:57.815Z,4.90
2018-11-12T11:37:26.989Z,5.47
2018-11-12T11:39:55.354Z,4.40
2018-11-12T11:42:23.751Z,5.10
2018-11-12T11:44:52.125Z,4.50
2018-11-12T11:47:20.566Z,4.30
2018-11-12T11:49:48.958Z,5.00
2018-11-12T11:52:17.331Z,4.58
2018-11-12T11:54:45.706Z,5.27
2018-11-12T11:57:14.195Z,16.75
2018-11-12T11:59:42.563Z,35.47
2018-11-12T12:02:11.000Z,13.10
2018-11-12T12:04:39.403Z,6.10
2018-11-12T12:07:07.833Z,4.90
2018-11-12T12:09:36.273Z,5.78
2018-11-12T12:12:05.326Z,12.90
2018-11-12T12:14:33.747Z,10.30
2018-11-12T12:17:02.192Z,7.30
2018-11-12T12:19:31.442Z,6.57
2018-11-12T12:21:59.864Z,7.87
2018-11-12T12:24:28.391Z,8.10
2018-11-12T12:26:56.738Z,4.27
2018-11-12T12:29:25.372Z,5.80
2018-11-12T12:31:53.865Z,5.65
2018-11-12T12:34:22.257Z,5.93
2018-11-12T12:36:50.765Z,8.37
2018-11-12T12:39:19.137Z,10.13
2018-11-12T12:41:47.633Z,9.50
2018-11-12T12:44:16.064Z,4.70
2018-11-12T12:46:44.468Z,3.20
2018-11-12T12:49:12.863Z,7.90
2018-11-12T12:51:41.277Z,3.35
2018-11-12T12:54:09.654Z,6.93
2018-11-12T12:56:38.059Z,12.83
2018-11-12T12:59:06.510Z,5.70
2018-11-12T13:01:34.954Z,4.30
2018-11-12T13:04:03.332Z,5.50
2018-11-12T13:06:31.756Z,1.80
2018-11-12T13:09:00.176Z,9.20
2018-11-12T13:11:28.559Z,2.77
2018-11-12T13:13:57.013Z,1.90
2018-11-12T13:16:25.443Z,5.50
2018-11-12T13:18:53.834Z,11.73
2018-11-12T13:21:22.309Z,2.30
2018-11-12T13:23:50.755Z,1.67
2018-11-12T13:26:19.302Z,2.43
2018-11-12T13:28:47.674Z,1.47
2018-11-12T13:31:16.125Z,2.17
2018-11-12T13:33:44.551Z,1.77
2018-11-12T13:36:12.965Z,1.40
2018-11-12T13:38:41.347Z,1.73
2018-11-12T13:41:09.729Z,1.43
2018-11-12T13:43:38.142Z,1.30
2018-11-12T13:46:06.572Z,1.77
2018-11-12T13:48:34.964Z,1.33
2018-11-12T13:51:03.404Z,1.53
2018-11-12T13:53:31.971Z,1.47
2018-11-12T13:56:00.500Z,1.40
2018-11-12T13:58:28.953Z,1.43
2018-11-12T14:00:57.350Z,1.47
2018-11-12T14:03:25.788Z,1.37
2018-11-12T14:05:54.190Z,1.20
2018-11-12T14:08:22.644Z,1.30
2018-11-12T14:10:51.056Z,1.10
2018-11-12T14:13:19.491Z,1.30
2018-11-12T14:15:47.909Z,1.50
2018-11-12T14:18:16.376Z,1.20
2018-11-12T14:20:44.783Z,1.60
2018-11-12T14:23:13.234Z,1.50
2018-11-12T14:25:41.622Z,1.10
2018-11-12T14:28:10.108Z,1.40
2018-11-12T14:30:38.507Z,1.47
2018-11-12T14:33:06.960Z,1.57
2018-11-12T14:35:35.410Z,1.83
2018-11-12T14:38:03.772Z,2.40
2018-11-12T14:40:32.184Z,2.83
2018-11-12T14:43:00.602Z,3.90
2018-11-12T14:45:29.004Z,3.83
2018-11-12T14:47:57.456Z,2.93
2018-11-12T14:50:25.853Z,5.30
2018-11-12T14:52:54.315Z,4.87
2018-11-12T14:55:22.758Z,5.13
2018-11-12T14:57:51.251Z,6.83
2018-11-12T15:00:22.938Z,2.27
2018-11-12T15:02:51.785Z,1.50
2018-11-12T15:05:21.652Z,1.60
2018-11-12T15:07:50.329Z,2.10
2018-11-12T15:10:18.864Z,2.50
2018-11-12T15:12:48.052Z,2.50
2018-11-12T15:15:16.647Z,2.73
2018-11-12T15:17:45.221Z,2.40
2018-11-12T15:20:15.313Z,3.60
2018-11-12T15:22:44.258Z,3.65
2018-11-12T15:25:15.340Z,4.65
2018-11-12T15:27:44.275Z,5.47
2018-11-12T15:30:14.646Z,6.17
2018-11-12T15:32:43.953Z,3.50
2018-11-12T15:35:12.996Z,3.53
2018-11-12T15:37:42.203Z,2.20
2018-11-12T15:40:11.396Z,1.32
2018-11-12T15:42:40.322Z,2.77
2018-11-12T15:45:10.970Z,2.30
2018-11-12T15:47:39.398Z,1.53
2018-11-12T15:50:12.579Z,2.33
2018-11-12T15:52:41.064Z,1.57
2018-11-12T15:55:09.859Z,1.53
2018-11-12T15:57:38.367Z,1.87
2018-11-12T16:00:09.140Z,1.92
2018-11-12T16:02:37.568Z,2.53
2018-11-12T16:05:06.682Z,1.82
2018-11-12T16:07:35.075Z,1.80
2018-11-12T16:10:03.628Z,2.17
2018-11-12T16:12:32.085Z,2.13
2018-11-12T16:15:00.469Z,1.77
2018-11-12T16:17:28.892Z,1.60
2018-11-12T16:19:57.321Z,2.27
2018-11-12T16:22:25.691Z,1.30
2018-11-12T16:24:54.109Z,1.73
2018-11-12T16:27:22.531Z,2.30
2018-11-12T16:29:50.936Z,2.20
2018-11-12T16:32:19.290Z,1.57
2018-11-12T16:34:47.720Z,1.47
2018-11-12T16:37:16.114Z,1.70
2018-11-12T16:39:44.505Z,1.13
2018-11-12T16:42:12.890Z,1.70
2018-11-12T16:44:41.332Z,1.80
2018-11-12T16:47:09.723Z,1.80
2018-11-12T16:49:38.136Z,1.73
2018-11-12T16:52:06.525Z,1.73
2018-11-12T16:54:34.952Z,2.80
2018-11-12T16:57:03.350Z,4.23
2018-11-12T16:59:31.815Z,4.17
2018-11-12T17:02:00.198Z,1.90
2018-11-12T17:04:28.668Z,2.23
2018-11-12T17:06:57.120Z,2.22
2018-11-12T17:09:25.559Z,2.10
2018-11-12T17:11:54.035Z,2.00
2018-11-12T17:14:22.626Z,1.53
2018-11-12T17:16:51.064Z,1.90
2018-11-12T17:19:19.474Z,1.50
2018-11-12T17:21:47.851Z,1.63
2018-11-12T17:24:16.308Z,1.20
2018-11-12T17:26:44.691Z,1.20
2018-11-12T17:29:13.107Z,4.60
2018-11-12T17:31:41.505Z,10.63
2018-11-12T17:34:09.920Z,2.10
2018-11-12T17:36:38.353Z,1.00
2018-11-12T17:39:07.528Z,1.47
2018-11-12T17:41:35.910Z,1.30
2018-11-12T17:44:04.387Z,1.40
2018-11-12T17:46:32.781Z,1.17
2018-11-12T17:49:01.186Z,1.40
2018-11-12T17:51:29.606Z,1.93
2018-11-12T17:53:58.041Z,1.60
2018-11-12T17:56:26.446Z,1.35
2018-11-12T17:58:54.951Z,1.40
2018-11-12T18:01:23.349Z,1.60
2018-11-12T18:03:51.834Z,1.67
2018-11-12T18:06:20.268Z,1.93
2018-11-12T18:08:48.636Z,2.53
2018-11-12T18:11:17.063Z,2.55
2018-11-12T18:13:45.489Z,2.37
2018-11-12T18:16:13.910Z,2.47
2018-11-12T18:18:42.293Z,3.10
2018-11-12T18:21:10.728Z,3.35
2018-11-12T18:23:39.101Z,3.40
2018-11-12T18:26:07.613Z,3.70
2018-11-12T18:28:36.043Z,3.97
2018-11-12T18:31:04.747Z,3.33
2018-11-12T18:33:33.048Z,3.90
2018-11-12T18:36:01.464Z,3.80
2018-11-12T18:38:29.872Z,3.70
2018-11-12T18:40:58.324Z,6.10
2018-11-12T18:43:26.824Z,6.33
2018-11-12T18:45:55.268Z,7.57
2018-11-12T18:48:23.735Z,6.00
2018-11-12T18:50:52.699Z,6.37
2018-11-12T18:53:21.180Z,4.07
2018-11-12T18:55:49.631Z,3.20
2018-11-12T18:58:18.036Z,2.93
2018-11-12T19:00:46.478Z,3.60
2018-11-12T19:03:14.943Z,4.63
2018-11-12T19:05:43.403Z,3.23
2018-11-12T19:08:11.896Z,3.03
2018-11-12T19:10:40.410Z,3.00
2018-11-12T19:13:08.762Z,3.37
2018-11-12T19:15:38.198Z,3.83
2018-11-12T19:18:08.875Z,3.30
2018-11-12T19:20:37.299Z,3.07
2018-11-12T19:23:06.170Z,3.40
2018-11-12T19:25:34.672Z,4.30
2018-11-12T19:28:03.093Z,3.97
2018-11-12T19:30:31.772Z,3.50
2018-11-12T19:33:00.237Z,3.30
2018-11-12T19:35:30.023Z,3.83
2018-11-12T19:37:58.499Z,3.33
2018-11-12T19:40:28.370Z,3.30
2018-11-12T19:42:57.173Z,2.97
2018-11-12T19:45:25.582Z,3.90
2018-11-12T19:47:54.362Z,3.70
2018-11-12T19:50:26.117Z,4.07
2018-11-12T19:52:55.725Z,3.15
2018-11-12T19:55:24.138Z,3.30
2018-11-12T19:57:52.554Z,3.43
2018-11-12T20:00:22.466Z,3.00
2018-11-12T20:02:52.103Z,3.10
2018-11-12T20:05:20.619Z,3.03
2018-11-12T20:07:48.999Z,2.87
2018-11-12T20:10:18.668Z,3.30
2018-11-12T20:12:47.122Z,2.80
2018-11-12T20:15:16.938Z,3.00
2018-11-12T20:17:46.402Z,3.93
2018-11-12T20:20:19.139Z,3.17
2018-11-12T20:22:48.060Z,3.20
2018-11-12T20:25:17.480Z,2.80
2018-11-12T20:27:46.328Z,2.60
2018-11-12T20:30:22.798Z,2.73
2018-11-12T20:32:51.240Z,3.10
2018-11-12T20:35:20.811Z,3.27
2018-11-12T20:37:49.265Z,2.70
2018-11-12T20:40:17.929Z,2.73
2018-11-12T20:42:47.144Z,3.30
2018-11-12T20:45:16.516Z,2.40
2018-11-12T20:47:46.041Z,3.00
2018-11-12T20:50:15.689Z,2.87
2018-11-12T20:52:44.346Z,2.90
2018-11-12T20:55:13.830Z,2.07
2018-11-12T20:57:42.859Z,4.87
2018-11-12T21:00:16.711Z,2.70
2018-11-12T21:02:46.525Z,2.65
2018-11-12T21:05:15.236Z,3.43
2018-11-12T21:07:43.669Z,2.60
2018-11-12T21:10:14.368Z,2.10
2018-11-12T21:12:43.404Z,2.73
2018-11-12T21:15:12.956Z,2.70
2018-11-12T21:17:44.717Z,2.27
2018-11-12T21:20:15.276Z,2.77
2018-11-12T21:22:43.874Z,2.73
2018-11-12T21:25:13.737Z,2.50
2018-11-12T21:27:42.114Z,2.40
2018-11-12T21:30:14.402Z,3.40
2018-11-12T21:32:43.187Z,2.30
2018-11-12T21:35:11.656Z,2.30
2018-11-12T21:37:40.149Z,2.10
2018-11-12T21:40:12.958Z,2.30
2018-11-12T21:42:41.427Z,2.67
2018-11-12T21:45:11.271Z,2.43
2018-11-12T21:47:40.597Z,2.30
2018-11-12T21:50:10.946Z,2.90
2018-11-12T21:52:39.510Z,2.90
2018-11-12T21:55:09.209Z,2.67
2018-11-12T21:57:37.874Z,2.70
2018-11-12T22:00:22.893Z,2.77
2018-11-12T22:02:54.635Z,3.42
2018-11-12T22:05:23.171Z,2.83
2018-11-12T22:07:51.659Z,2.80
2018-11-12T22:10:20.139Z,2.57
2018-11-12T22:12:49.614Z,2.47
2018-11-12T22:15:18.062Z,1.90
2018-11-12T22:17:46.500Z,3.30
2018-11-12T22:20:16.125Z,2.90
2018-11-12T22:22:44.877Z,3.17
2018-11-12T22:25:14.783Z,2.80
2018-11-12T22:27:43.651Z,3.10
2018-11-12T22:30:14.408Z,3.20
2018-11-12T22:32:43.428Z,3.03
2018-11-12T22:35:11.869Z,3.87
2018-11-12T22:37:40.409Z,6.00
2018-11-12T22:40:10.408Z,4.07
2018-11-12T22:42:39.282Z,2.33
2018-11-12T22:45:09.173Z,2.40
2018-11-12T22:47:37.603Z,3.03
2018-11-12T22:50:07.428Z,2.90
2018-11-12T22:52:35.996Z,2.70
2018-11-12T22:55:04.725Z,3.87
2018-11-12T22:57:33.153Z,3.10
2018-11-12T23:00:01.625Z,2.70
2018-11-12T23:02:30.108Z,3.23
2018-11-12T23:04:58.555Z,3.90
2018-11-12T23:07:26.982Z,16.67
2018-11-12T23:09:55.484Z,22.70
2018-11-12T23:12:24.041Z,11.50
2018-11-12T23:14:52.450Z,4.57
2018-11-12T23:17:20.859Z,3.33
2018-11-12T23:19:49.373Z,3.20
2018-11-12T23:22:17.761Z,3.13
2018-11-12T23:24:46.171Z,3.10
2018-11-12T23:27:14.608Z,3.15
2018-11-12T23:29:43.050Z,3.37
2018-11-12T23:32:11.540Z,2.93
2018-11-12T23:34:39.959Z,2.60
2018-11-12T23:37:08.365Z,2.80
2018-11-12T23:39:36.791Z,2.92
2018-11-12T23:42:05.832Z,3.20
2018-11-12T23:44:34.275Z,2.70
2018-11-12T23:47:02.712Z,3.07
2018-11-12T23:49:31.128Z,3.20
2018-11-12T23:51:59.572Z,3.50
2018-11-12T23:54:28.054Z,4.00
2018-11-12T23:56:56.468Z,3.70
2018-11-12T23:59:24.905Z,3.37
